Time;durP1;ratioP1;P1;durP2;ratioP2;P2;SDS_P1;SDS_P2;PMS_P1;PMS_P2;Temp;Humidity;BMP_temperature;BMP_pressure;BME280_temperature;BME280_humidity;BME280_pressure;Samples;Min_cycle;Max_cycle;Signal;HPM_P1;HPM_P2
2022/12/07 00:01:58;;;;;;;;;50.00;37.50;;;;;7.05;64.95;101686.38;5037459;28;45209;-59
2022/12/07 00:04:23;;;;;;;;;50.75;38.25;;;;;7.06;64.69;101680.25;5009299;28;45002;-59
2022/12/07 00:06:52;;;;;;;;;54.25;40.25;;;;;7.03;64.75;101676.47;5016300;28;44911;-61
2022/12/07 00:09:18;;;;;;;;;47.00;37.25;;;;;6.84;64.63;101651.53;5010334;28;45380;-60
2022/12/07 00:11:47;;;;;;;;;54.00;41.25;;;;;6.84;65.00;101672.78;5020693;28;45272;-60
2022/12/07 00:14:14;;;;;;;;;55.50;42.75;;;;;6.86;65.18;101659.59;5022303;28;45068;-61
2022/12/07 00:16:40;;;;;;;;;54.75;40.75;;;;;6.87;64.83;101659.69;5009969;28;45274;-59
2022/12/07 00:19:06;;;;;;;;;53.75;40.50;;;;;6.97;65.05;101674.41;5003703;28;46164;-61
2022/12/07 00:21:34;;;;;;;;;55.50;41.75;;;;;6.89;64.83;101654.47;5010300;28;45639;-61
2022/12/07 00:24:00;;;;;;;;;52.25;40.50;;;;;6.99;64.92;101670.06;5018643;28;45585;-61
2022/12/07 00:26:38;;;;;;;;;52.75;39.25;;;;;7.00;64.79;101663.94;5002872;28;45694;-59
2022/12/07 00:29:12;;;;;;;;;43.25;37.25;;;;;7.07;64.68;101674.06;5011824;28;45543;-61
2022/12/07 00:31:38;;;;;;;;;51.75;41.25;;;;;7.10;64.84;101668.94;5018397;28;45472;-60
2022/12/07 00:34:06;;;;;;;;;43.00;31.00;;;;;7.15;64.44;101667.44;5008612;28;45763;-61
2022/12/07 00:36:31;;;;;;;;;60.75;42.75;;;;;7.04;64.39;101652.66;5013212;28;45168;-62
2022/12/07 00:39:00;;;;;;;;;42.00;38.50;;;;;7.10;64.19;101663.63;5021736;28;45609;-60
2022/12/07 00:41:27;;;;;;;;;46.50;39.50;;;;;7.12;64.58;101663.72;5000969;28;45478;-61
2022/12/07 00:43:53;;;;;;;;;55.50;40.50;;;;;7.10;64.49;101668.03;5004747;28;45937;-60
2022/12/07 00:46:20;;;;;;;;;50.75;41.25;;;;;7.10;64.64;101666.28;5005580;28;45286;-59
2022/12/07 00:48:46;;;;;;;;;44.50;39.75;;;;;7.08;64.76;101659.03;5012031;28;45942;-60
2022/12/07 00:51:14;;;;;;;;;58.50;42.50;;;;;7.14;64.33;101667.34;5000888;28;45339;-60
2022/12/07 00:53:40;;;;;;;;;40.00;35.00;;;;;7.07;64.12;101658.13;5013038;28;45526;-61
2022/12/07 00:56:06;;;;;;;;;52.00;39.75;;;;;7.08;64.57;101664.34;5002330;28;45427;-60
2022/12/07 00:58:32;;;;;;;;;37.00;35.75;;;;;6.97;64.86;101645.19;5004200;28;45603;-61
2022/12/07 01:01:01;;;;;;;;;58.00;40.50;;;;;7.03;64.80;101657.88;5008745;28;46784;-60
2022/12/07 01:03:26;;;;;;;;;40.25;35.00;;;;;6.96;64.94;101636.31;4996640;28;45541;-61
2022/12/07 01:05:54;;;;;;;;;45.25;38.50;;;;;7.07;64.69;101652.81;4994722;28;45421;-61
2022/12/07 01:08:19;;;;;;;;;53.50;38.50;;;;;7.06;64.71;101655.38;4994233;28;46599;-61
2022/12/07 01:10:45;;;;;;;;;50.50;40.00;;;;;7.05;64.95;101642.97;4993810;28;45407;-61
2022/12/07 01:13:10;;;;;;;;;51.00;37.50;;;;;6.82;64.95;101624.91;4994457;28;45445;-61
2022/12/07 01:15:40;;;;;;;;;43.25;38.50;;;;;6.82;65.02;101646.13;5009448;28;45594;-60
2022/12/07 01:18:05;;;;;;;;;41.50;38.00;;;;;6.60;65.06;101629.81;5000645;28;46056;-62
2022/12/07 01:20:30;;;;;;;;;44.25;35.50;;;;;6.69;65.71;101643.63;4992965;28;45367;-60
2022/12/07 01:22:56;;;;;;;;;40.50;35.75;;;;;6.70;65.96;101640.16;4998113;28;45313;-60
2022/12/07 01:25:21;;;;;;;;;54.00;39.75;;;;;6.68;65.41;101636.47;5001209;28;45225;-60
2022/12/07 01:27:46;;;;;;;;;55.25;43.25;;;;;6.76;65.61;101642.22;4996066;28;46488;-59
2022/12/07 01:30:12;;;;;;;;;54.25;40.75;;;;;6.85;65.50;101647.13;4995759;28;57199;-62
2022/12/07 01:32:38;;;;;;;;;47.25;39.25;;;;;6.83;65.00;101628.50;5004702;28;45524;-62
2022/12/07 01:35:03;;;;;;;;;60.75;44.00;;;;;6.80;65.18;101637.19;4994383;28;45303;-60
2022/12/07 01:37:37;;;;;;;;;55.25;42.00;;;;;6.76;64.94;101631.59;4993991;28;45379;-62
2022/12/07 01:40:03;;;;;;;;;50.00;37.75;;;;;6.83;64.75;101620.53;4992535;28;45580;-59
2022/12/07 01:42:29;;;;;;;;;55.00;42.75;;;;;6.79;64.57;101622.06;5007646;28;45335;-61
2022/12/07 01:45:32;;;;;;;;;56.00;40.75;;;;;6.80;64.87;101639.84;4994595;28;45356;-61
2022/12/07 01:47:58;;;;;;;;;54.00;41.25;;;;;6.75;64.53;101633.34;5001313;28;45609;-62
2022/12/07 01:50:27;;;;;;;;;48.50;38.00;;;;;6.74;64.72;101635.94;5006678;28;45597;-63
2022/12/07 01:52:55;;;;;;;;;49.25;38.25;;;;;6.72;64.40;101626.97;5003116;28;45477;-63
2022/12/07 01:55:22;;;;;;;;;45.25;38.00;;;;;6.71;64.44;101626.03;4998027;28;45289;-63
2022/12/07 01:57:50;;;;;;;;;57.00;41.25;;;;;6.69;64.17;101640.97;5006825;28;46876;-61
2022/12/07 02:00:17;;;;;;;;;54.50;40.25;;;;;6.62;63.84;101618.47;4996678;28;45593;-63
2022/12/07 02:02:56;;;;;;;;;54.25;38.75;;;;;6.63;64.18;101636.25;4993765;28;45594;-61
2022/12/07 02:05:24;;;;;;;;;56.25;39.50;;;;;6.51;64.59;101614.28;4996777;28;45378;-61
2022/12/07 02:07:52;;;;;;;;;45.00;36.75;;;;;6.61;64.14;101626.34;4993563;28;46383;-62
2022/12/07 02:10:21;;;;;;;;;39.50;31.50;;;;;6.62;63.94;101638.81;4997528;28;45375;-60
2022/12/07 02:12:51;;;;;;;;;51.75;37.75;;;;;6.58;64.04;101626.16;4993775;28;45643;-62
2022/12/07 02:15:20;;;;;;;;;49.00;35.75;;;;;6.56;63.74;101625.19;4994072;28;45378;-63
2022/12/07 02:17:57;;;;;;;;;55.50;36.25;;;;;6.40;63.90;101607.44;5006386;28;46347;-62
2022/12/07 02:20:37;;;;;;;;;49.25;38.00;;;;;6.45;64.21;101635.16;4994312;28;45431;-63
2022/12/07 02:23:28;;;;;;;;;49.75;38.00;;;;;6.46;64.12;101644.97;4996528;28;45492;-62
2022/12/07 02:26:13;;;;;;;;;37.25;35.00;;;;;6.30;64.32;101611.31;4995222;28;45402;-63
2022/12/07 02:29:00;;;;;;;;;54.00;36.25;;;;;6.41;64.46;101639.41;5001507;28;45657;-61
2022/12/07 02:31:30;;;;;;;;;45.75;37.50;;;;;6.36;64.40;101634.66;4997475;28;45403;-60
2022/12/07 02:34:08;;;;;;;;;36.75;32.50;;;;;6.19;64.55;101608.06;4996710;28;45475;-61
2022/12/07 02:36:45;;;;;;;;;43.00;36.00;;;;;6.25;64.87;101626.06;4998507;28;45862;-61
2022/12/07 02:39:31;;;;;;;;;42.50;35.00;;;;;6.29;64.87;101625.44;5001629;28;46203;-62
2022/12/07 02:42:07;;;;;;;;;38.50;29.75;;;;;6.28;64.90;101627.16;4997311;28;45546;-62
2022/12/07 02:44:34;;;;;;;;;37.25;29.75;;;;;6.23;64.53;101625.97;5000930;28;45355;-60
2022/12/07 02:47:07;;;;;;;;;47.75;25.50;;;;;6.25;65.22;101632.31;5002295;28;45581;-63
2022/12/07 02:49:33;;;;;;;;;35.00;26.00;;;;;6.20;64.91;101619.59;5014821;28;47043;-62
2022/12/07 02:51:58;;;;;;;;;35.00;33.75;;;;;6.28;64.98;101634.22;5003071;28;45756;-61
2022/12/07 02:54:24;;;;;;;;;36.75;28.00;;;;;6.33;65.25;101632.72;5022957;28;45759;-63
2022/12/07 02:57:04;;;;;;;;;38.75;31.00;;;;;6.28;65.27;101613.88;5002127;28;45469;-61
2022/12/07 02:59:32;;;;;;;;;38.50;28.25;;;;;6.41;65.41;101626.13;4995594;28;45391;-62
2022/12/07 03:02:20;;;;;;;;;36.50;29.75;;;;;6.43;65.11;101624.50;5004448;28;45696;-63
2022/12/07 03:05:07;;;;;;;;;39.75;29.50;;;;;6.46;64.65;101623.75;5000465;28;45478;-63
2022/12/07 03:08:13;;;;;;;;;35.50;28.75;;;;;6.43;64.69;101621.84;4997828;28;45372;-61
2022/12/07 03:11:05;;;;;;;;;29.75;27.50;;;;;6.41;64.55;101610.19;4991386;28;46395;-60
2022/12/07 03:13:39;;;;;;;;;34.50;28.00;;;;;6.44;64.35;101620.09;5000659;28;45454;-60
2022/12/07 03:16:26;;;;;;;;;42.00;32.50;;;;;6.40;64.38;101605.75;4996624;28;45426;-60
2022/12/07 03:18:59;;;;;;;;;40.50;30.25;;;;;6.39;64.79;101613.59;5008569;28;45416;-63
2022/12/07 03:21:31;;;;;;;;;30.50;27.25;;;;;6.37;64.16;101613.53;5017063;28;46466;-61
2022/12/07 03:24:00;;;;;;;;;32.00;28.50;;;;;6.30;64.73;101595.41;5013481;28;45599;-61
2022/12/07 03:26:34;;;;;;;;;38.25;26.00;;;;;6.37;64.93;101604.63;4999937;28;45603;-63
2022/12/07 03:29:13;;;;;;;;;36.75;32.50;;;;;6.36;64.84;101603.72;5007458;28;45295;-60
2022/12/07 03:31:44;;;;;;;;;30.75;25.75;;;;;6.34;64.95;101610.69;5000256;28;46450;-62
2022/12/07 03:34:17;;;;;;;;;34.00;28.00;;;;;6.34;64.48;101600.06;5003301;28;45464;-63
2022/12/07 03:37:18;;;;;;;;;30.00;26.50;;;;;6.32;64.25;101598.13;5003857;28;45486;-60
2022/12/07 03:39:59;;;;;;;;;32.25;27.00;;;;;6.29;64.38;101585.63;5005662;28;45427;-63
2022/12/07 03:42:25;;;;;;;;;32.50;27.50;;;;;6.29;64.13;101598.91;4995774;28;46226;-59
2022/12/07 03:44:50;;;;;;;;;29.50;28.25;;;;;6.19;64.09;101593.91;4995959;28;45442;-59
2022/12/07 03:47:32;;;;;;;;;31.00;23.75;;;;;6.15;64.35;101602.50;5003382;28;45687;-62
2022/12/07 03:50:10;;;;;;;;;26.50;21.00;;;;;6.01;64.67;101580.47;5005406;28;45526;-66
2022/12/07 03:52:45;;;;;;;;;30.25;26.25;;;;;6.11;64.46;101601.41;4997988;28;48168;-61
2022/12/07 03:55:26;;;;;;;;;26.75;25.75;;;;;6.13;64.68;101597.09;5013950;28;45348;-61
2022/12/07 03:57:56;;;;;;;;;28.75;25.75;;;;;6.03;64.96;101577.06;5003561;28;45494;-63
2022/12/07 04:00:21;;;;;;;;;34.50;31.50;;;;;6.16;64.84;101591.97;4996211;28;45487;-62
2022/12/07 04:02:47;;;;;;;;;39.00;30.75;;;;;6.18;64.32;101590.31;4995254;28;46077;-65
2022/12/07 04:05:13;;;;;;;;;39.75;30.00;;;;;6.17;64.51;101582.25;5005918;28;46061;-62
2022/12/07 04:07:38;;;;;;;;;34.25;25.00;;;;;5.92;64.54;101559.56;5010764;28;45735;-62
2022/12/07 04:10:05;;;;;;;;;37.00;29.25;;;;;6.00;64.68;101583.94;4995461;28;45487;-63
2022/12/07 04:12:30;;;;;;;;;38.25;28.00;;;;;6.03;64.64;101592.97;4995012;28;46605;-65
2022/12/07 04:14:55;;;;;;;;;39.25;34.00;;;;;6.02;65.27;101592.88;5022404;28;45474;-64
2022/12/07 04:17:20;;;;;;;;;33.50;26.75;;;;;5.89;64.88;101580.66;5001353;28;45548;-64
2022/12/07 04:19:46;;;;;;;;;39.00;29.00;;;;;5.83;65.73;101564.38;5000377;28;45596;-62
2022/12/07 04:22:11;;;;;;;;;29.75;25.00;;;;;5.90;65.47;101577.16;5002179;28;50796;-64
2022/12/07 04:24:36;;;;;;;;;28.00;25.25;;;;;6.02;65.49;101591.19;5002605;28;45483;-62
2022/12/07 04:27:02;;;;;;;;;31.50;22.00;;;;;6.08;65.62;101587.94;4998565;28;45627;-63
2022/12/07 04:29:28;;;;;;;;;31.25;25.75;;;;;6.07;65.36;101592.34;4995953;28;45511;-63
2022/12/07 04:31:53;;;;;;;;;36.50;29.75;;;;;6.00;65.46;101599.84;4995956;28;45753;-64
2022/12/07 04:34:19;;;;;;;;;30.50;26.25;;;;;5.89;65.54;101570.03;5004803;28;45573;-62
2022/12/07 04:36:46;;;;;;;;;26.75;19.00;;;;;6.09;65.41;101598.66;5006692;28;45581;-64
2022/12/07 04:39:22;;;;;;;;;34.50;29.00;;;;;6.03;65.18;101592.97;5004397;28;45529;-58
2022/12/07 04:41:48;;;;;;;;;34.25;31.00;;;;;5.95;65.23;101588.94;5003784;28;45327;-60
2022/12/07 04:44:15;;;;;;;;;31.25;23.25;;;;;5.90;66.04;101590.41;5002569;28;45422;-61
2022/12/07 04:46:41;;;;;;;;;32.75;27.25;;;;;5.86;66.12;101586.66;4999168;28;45521;-63
2022/12/07 04:49:06;;;;;;;;;28.50;23.00;;;;;5.88;65.77;101585.00;5014713;28;45742;-64
2022/12/07 04:51:32;;;;;;;;;26.25;20.50;;;;;5.87;66.07;101582.28;4998992;28;45497;-62
2022/12/07 04:53:57;;;;;;;;;39.25;24.25;;;;;5.87;65.79;101574.31;4982211;28;45597;-63
2022/12/07 04:56:23;;;;;;;;;33.50;28.75;;;;;5.87;65.74;101563.69;5006178;28;45675;-63
2022/12/07 04:58:49;;;;;;;;;23.75;21.00;;;;;5.97;65.54;101568.75;5008687;28;45327;-63
2022/12/07 05:01:16;;;;;;;;;21.50;20.00;;;;;5.92;65.78;101570.19;5000821;28;45423;-64
2022/12/07 05:03:43;;;;;;;;;25.00;23.50;;;;;5.95;65.80;101580.06;4996847;28;45689;-63
2022/12/07 05:06:10;;;;;;;;;27.50;19.00;;;;;5.99;65.44;101592.72;4994594;28;45401;-64
2022/12/07 05:08:36;;;;;;;;;33.25;25.00;;;;;5.87;65.90;101576.97;4998406;28;45534;-61
2022/12/07 05:11:03;;;;;;;;;29.25;21.50;;;;;5.95;65.25;101575.66;4994091;28;46137;-63
2022/12/07 05:13:28;;;;;;;;;31.50;23.50;;;;;6.07;65.10;101591.41;5005679;28;45520;-60
2022/12/07 05:15:54;;;;;;;;;25.50;23.00;;;;;6.07;65.59;101572.84;4994767;28;45465;-62
2022/12/07 05:18:19;;;;;;;;;22.00;20.75;;;;;6.07;64.98;101573.78;4999690;28;45578;-63
2022/12/07 05:20:45;;;;;;;;;25.50;22.75;;;;;6.09;65.03;101585.38;4994375;28;46670;-62
2022/12/07 05:23:11;;;;;;;;;30.25;30.00;;;;;6.16;65.08;101585.75;4994663;28;45531;-61
2022/12/07 05:25:37;;;;;;;;;28.50;25.00;;;;;6.12;65.08;101578.44;5003904;28;44921;-61
2022/12/07 05:28:03;;;;;;;;;24.50;20.75;;;;;6.24;64.94;101592.41;4999545;28;45505;-63
2022/12/07 05:30:29;;;;;;;;;30.25;23.75;;;;;6.23;64.40;101585.28;5011961;28;47383;-65
2022/12/07 05:32:55;;;;;;;;;35.00;23.25;;;;;6.30;64.47;101583.88;5009714;28;45742;-62
2022/12/07 05:35:20;;;;;;;;;33.00;22.50;;;;;6.33;64.52;101587.63;4994976;28;45472;-62
2022/12/07 05:37:46;;;;;;;;;22.50;19.50;;;;;6.36;64.40;101590.44;5003614;28;45612;-59
2022/12/07 05:40:12;;;;;;;;;24.50;24.50;;;;;6.17;64.27;101571.63;4996905;28;45380;-62
2022/12/07 05:42:38;;;;;;;;;30.00;24.50;;;;;6.18;64.79;101597.38;4997048;28;45452;-60
2022/12/07 05:45:04;;;;;;;;;36.00;25.50;;;;;6.18;64.60;101587.66;5003717;28;45451;-63
2022/12/07 05:47:30;;;;;;;;;23.25;22.75;;;;;6.07;65.00;101581.75;5014981;28;47167;-63
2022/12/07 05:49:55;;;;;;;;;32.00;24.75;;;;;6.05;65.67;101593.97;5001755;28;45319;-63
2022/12/07 05:52:21;;;;;;;;;37.75;25.25;;;;;6.03;66.13;101587.69;5008273;28;45255;-62
2022/12/07 05:54:46;;;;;;;;;33.75;26.75;;;;;5.97;65.95;101579.34;4994659;28;45366;-64
2022/12/07 05:57:12;;;;;;;;;31.25;26.00;;;;;6.05;65.86;101580.72;5004345;28;45317;-62
2022/12/07 05:59:37;;;;;;;;;24.00;21.75;;;;;6.03;65.73;101571.75;4995602;28;46085;-63
2022/12/07 06:02:05;;;;;;;;;25.00;21.25;;;;;6.11;65.84;101589.88;4997283;28;45493;-62
2022/12/07 06:04:34;;;;;;;;;26.75;25.00;;;;;6.10;66.28;101586.28;5011188;28;45451;-61
2022/12/07 06:06:59;;;;;;;;;33.00;29.50;;;;;6.08;66.18;101588.84;5009908;28;45592;-61
2022/12/07 06:09:27;;;;;;;;;23.00;20.50;;;;;6.04;66.47;101580.66;4996359;28;47053;-63
2022/12/07 06:14:37;;;;;;;;;25.75;21.00;;;;;6.06;66.38;101573.69;4997145;28;45490;-62
2022/12/07 06:17:02;;;;;;;;;47.25;38.00;;;;;6.07;66.08;101576.44;4997265;28;45566;-63
2022/12/07 06:19:28;;;;;;;;;37.75;31.00;;;;;6.12;66.75;101583.72;5004901;28;45471;-62
2022/12/07 06:21:53;;;;;;;;;15.25;4.50;;;;;6.08;66.57;101564.97;5016172;28;45553;-59
2022/12/07 06:24:19;;;;;;;;;28.25;25.25;;;;;6.10;65.99;101557.13;5009027;28;45393;-61
2022/12/07 06:26:45;;;;;;;;;34.00;27.50;;;;;6.24;65.99;101579.16;5020744;28;45108;-60
2022/12/07 06:29:10;;;;;;;;;29.75;25.75;;;;;6.20;65.85;101579.78;5011696;28;45702;-60
2022/12/07 06:31:36;;;;;;;;;23.50;20.00;;;;;6.09;66.08;101544.69;5019306;28;45564;-60
2022/12/07 06:34:05;;;;;;;;;34.50;25.25;;;;;6.31;65.17;101583.97;5021424;28;45645;-60
2022/12/07 06:36:30;;;;;;;;;27.75;21.00;;;;;6.23;65.34;101572.91;5015201;28;45519;-61
2022/12/07 06:38:56;;;;;;;;;21.50;20.50;;;;;6.27;65.49;101574.03;5009754;28;45477;-60
2022/12/07 06:41:22;;;;;;;;;23.00;23.00;;;;;6.34;65.42;101581.50;5025930;28;45479;-59
2022/12/07 06:43:47;;;;;;;;;29.25;25.50;;;;;6.35;65.39;101569.13;5030891;28;45445;-60
2022/12/07 06:46:14;;;;;;;;;34.00;27.75;;;;;6.44;65.66;101578.53;5028111;28;45356;-61
2022/12/07 06:48:39;;;;;;;;;31.00;23.50;;;;;6.49;65.24;101585.84;5024616;28;48220;-61
2022/12/07 06:51:04;;;;;;;;;28.75;26.25;;;;;6.42;65.05;101584.59;5012131;28;45488;-61
2022/12/07 06:53:30;;;;;;;;;37.25;28.00;;;;;6.49;65.39;101584.09;5005036;28;45436;-62
2022/12/07 06:55:55;;;;;;;;;30.75;24.50;;;;;6.52;65.42;101586.03;5029094;28;45369;-61
2022/12/07 06:58:20;;;;;;;;;27.75;24.75;;;;;6.41;65.10;101565.06;5030891;28;47163;-64
2022/12/07 07:00:48;;;;;;;;;27.50;22.75;;;;;6.52;65.00;101578.97;5017973;28;45228;-62
2022/12/07 07:03:13;;;;;;;;;28.25;21.50;;;;;6.40;65.63;101576.53;5017535;28;45341;-62
2022/12/07 07:05:39;;;;;;;;;39.00;26.75;;;;;6.45;65.60;101592.69;5029455;28;45225;-63
2022/12/07 07:08:04;;;;;;;;;20.00;17.00;;;;;6.37;65.86;101580.72;5013361;28;45167;-60
2022/12/07 07:10:30;;;;;;;;;35.75;27.75;;;;;6.37;65.67;101581.66;5012209;28;45489;-60
2022/12/07 07:12:55;;;;;;;;;35.75;30.00;;;;;6.34;66.05;101584.16;5010537;28;46043;-61
2022/12/07 07:15:20;;;;;;;;;31.25;22.25;;;;;6.35;66.36;101586.00;5020978;28;45268;-60
2022/12/07 07:17:46;;;;;;;;;27.50;19.50;;;;;6.38;66.22;101585.22;5025237;28;46621;-63
2022/12/07 07:20:12;;;;;;;;;32.75;26.75;;;;;6.35;65.90;101577.09;5022038;28;45167;-61
2022/12/07 07:22:37;;;;;;;;;25.75;22.25;;;;;6.38;66.39;101583.47;5009524;28;45586;-64
2022/12/07 07:25:03;;;;;;;;;25.75;21.75;;;;;6.44;66.35;101580.28;5028508;28;45175;-63
2022/12/07 07:27:28;;;;;;;;;34.75;31.25;;;;;6.41;66.18;101570.38;5013220;28;45779;-61
2022/12/07 07:29:54;;;;;;;;;30.25;24.75;;;;;6.54;65.71;101587.91;5004530;28;45461;-61
2022/12/07 07:32:21;;;;;;;;;32.00;25.00;;;;;6.55;66.62;101580.84;5013575;28;45699;-63
2022/12/07 07:34:46;;;;;;;;;39.00;32.50;;;;;6.68;65.57;101588.69;5010725;28;45517;-63
2022/12/07 07:37:12;;;;;;;;;27.25;25.50;;;;;6.62;66.09;101568.03;5017956;28;45836;-62
2022/12/07 07:39:38;;;;;;;;;29.25;25.25;;;;;6.82;65.69;101602.75;5008596;28;45522;-64
2022/12/07 07:42:03;;;;;;;;;24.25;21.50;;;;;6.85;64.94;101594.94;4999535;28;45461;-60
2022/12/07 07:44:29;;;;;;;;;28.25;23.00;;;;;6.87;65.38;101590.63;5007139;28;45422;-61
2022/12/07 07:46:54;;;;;;;;;26.25;23.25;;;;;6.80;65.21;101572.53;5017656;28;46892;-62
2022/12/07 07:49:19;;;;;;;;;24.50;21.00;;;;;6.83;65.10;101578.03;5013341;28;45625;-60
2022/12/07 07:51:45;;;;;;;;;29.75;26.50;;;;;6.97;65.24;101582.31;5007512;28;45542;-64
2022/12/07 07:54:10;;;;;;;;;40.75;30.50;;;;;6.99;64.53;101585.06;5010343;28;45703;-62
2022/12/07 07:56:35;;;;;;;;;55.50;44.25;;;;;7.01;64.18;101581.66;5010304;28;57897;-62
2022/12/07 07:59:04;;;;;;;;;37.75;26.00;;;;;7.00;64.81;101570.97;5017133;28;45613;-62
2022/12/07 08:01:29;;;;;;;;;29.25;23.00;;;;;6.98;64.80;101578.84;5007854;28;45440;-62
2022/12/07 08:03:54;;;;;;;;;28.00;24.75;;;;;7.04;64.77;101593.28;5007016;28;51623;-61
2022/12/07 08:06:20;;;;;;;;;51.75;41.50;;;;;7.10;64.96;101594.53;5000160;28;45430;-63
2022/12/07 08:08:45;;;;;;;;;37.50;29.75;;;;;7.04;64.24;101575.59;5004108;28;45417;-62
2022/12/07 08:11:13;;;;;;;;;43.50;33.25;;;;;6.96;63.86;101576.91;4996254;28;45290;-63
2022/12/07 08:13:39;;;;;;;;;36.25;29.75;;;;;6.99;64.27;101585.06;5008853;28;45532;-61
2022/12/07 08:16:08;;;;;;;;;38.00;33.25;;;;;7.01;64.13;101586.06;5005843;28;46241;-63
2022/12/07 08:18:38;;;;;;;;;26.50;23.25;;;;;7.12;64.20;101600.84;5003646;28;45430;-63
2022/12/07 08:21:04;;;;;;;;;36.75;27.25;;;;;7.13;63.78;101592.03;5005754;28;45310;-63
2022/12/07 08:23:30;;;;;;;;;30.50;24.50;;;;;7.19;63.58;101608.31;5007362;28;45226;-63
2022/12/07 08:26:01;;;;;;;;;37.00;26.75;;;;;7.18;64.24;101608.25;5006280;28;46741;-62
2022/12/07 08:28:26;;;;;;;;;30.50;23.75;;;;;7.10;63.89;101596.28;5011444;28;45485;-63
2022/12/07 08:30:51;;;;;;;;;34.00;26.00;;;;;7.09;64.02;101613.94;5029168;28;45912;-61
2022/12/07 08:33:17;;;;;;;;;25.75;20.00;;;;;7.02;64.07;101617.13;5024451;28;45049;-63
2022/12/07 08:35:42;;;;;;;;;24.00;21.75;;;;;6.89;64.24;101601.34;5013789;28;45830;-62
2022/12/07 08:38:07;;;;;;;;;37.25;26.25;;;;;6.85;64.57;101605.56;5025108;28;45335;-64
2022/12/07 08:40:33;;;;;;;;;25.25;25.25;;;;;6.80;64.77;101592.03;5012722;28;45036;-64
2022/12/07 08:42:58;;;;;;;;;33.00;24.75;;;;;6.97;64.61;101613.28;5008293;28;45354;-62
2022/12/07 08:45:24;;;;;;;;;45.25;31.50;;;;;6.98;64.83;101618.69;5017114;28;45934;-63
2022/12/07 08:47:55;;;;;;;;;39.25;30.00;;;;;7.00;64.86;101621.44;5024217;28;45017;-62
2022/12/07 08:50:21;;;;;;;;;38.50;32.50;;;;;6.98;64.20;101610.72;5023144;28;44848;-63
2022/12/07 08:52:53;;;;;;;;;26.75;24.25;;;;;7.09;64.81;101610.38;5010674;28;45082;-61
2022/12/07 08:55:19;;;;;;;;;44.75;31.25;;;;;7.10;64.57;101613.13;5025657;28;45818;-61
2022/12/07 08:57:45;;;;;;;;;33.50;23.25;;;;;7.10;64.38;101623.75;5017880;28;45264;-63
2022/12/07 09:00:11;;;;;;;;;29.75;25.00;;;;;6.49;64.08;101507.13;5011216;28;45514;-61
2022/12/07 09:02:37;;;;;;;;;27.00;23.75;;;;;7.13;64.12;101615.06;5005869;28;45487;-63
2022/12/07 09:05:02;;;;;;;;;27.50;26.00;;;;;7.13;63.96;101610.66;5008602;28;47208;-63
2022/12/07 09:07:32;;;;;;;;;31.25;27.00;;;;;6.99;64.41;101588.63;5017286;28;44942;-61
2022/12/07 09:09:57;;;;;;;;;25.75;24.25;;;;;7.09;64.58;101613.94;5007165;28;45691;-63
2022/12/07 09:12:22;;;;;;;;;32.00;27.75;;;;;7.01;64.45;101602.00;5022767;28;45025;-62
2022/12/07 09:14:48;;;;;;;;;32.00;22.75;;;;;7.11;64.53;101607.00;4999728;28;46105;-61
2022/12/07 09:17:13;;;;;;;;;35.50;30.25;;;;;7.14;64.17;101598.25;5004663;28;44924;-62
2022/12/07 09:19:40;;;;;;;;;34.75;27.50;;;;;7.26;63.99;101621.91;5007614;28;45620;-61
2022/12/07 09:22:05;;;;;;;;;26.25;24.25;;;;;7.19;63.40;101604.72;5002719;28;45125;-60
2022/12/07 09:24:31;;;;;;;;;32.25;27.25;;;;;7.24;64.02;101628.91;5035010;28;47811;-64
2022/12/07 09:26:57;;;;;;;;;32.25;27.25;;;;;7.24;64.19;101621.84;5011716;28;45244;-65
2022/12/07 09:29:23;;;;;;;;;34.75;29.25;;;;;6.75;63.95;101535.09;5018990;28;45454;-62
2022/12/07 09:31:48;;;;;;;;;36.25;27.75;;;;;7.21;64.27;101621.69;5007640;28;45515;-65
2022/12/07 09:34:14;;;;;;;;;42.00;32.50;;;;;7.28;64.20;101618.53;5007197;28;45795;-62
2022/12/07 09:36:39;;;;;;;;;33.25;28.50;;;;;7.31;64.61;101607.13;5015882;28;45774;-62
2022/12/07 09:39:05;;;;;;;;;35.75;33.75;;;;;7.41;64.47;101616.50;5013192;28;45567;-62
2022/12/07 09:41:32;;;;;;;;;33.75;25.00;;;;;7.46;63.73;101591.09;5013741;28;45498;-63
2022/12/07 09:44:12;;;;;;;;;30.25;26.50;;;;;7.57;64.01;101606.78;5017820;28;46319;-62
2022/12/07 09:46:41;;;;;;;;;36.50;29.50;;;;;7.58;64.31;101597.06;5011083;28;45528;-61
2022/12/07 09:49:20;;;;;;;;;38.50;34.50;;;;;7.79;64.74;101609.63;5014134;28;45679;-64
2022/12/07 09:51:46;;;;;;;;;38.50;34.25;;;;;7.83;64.29;101603.63;5014992;28;45501;-63
2022/12/07 09:54:16;;;;;;;;;44.75;30.75;;;;;7.95;64.14;101609.56;5018785;28;46259;-64
2022/12/07 09:56:42;;;;;;;;;34.50;29.75;;;;;7.91;64.45;101599.63;5007912;28;45362;-62
2022/12/07 09:59:18;;;;;;;;;30.00;27.50;;;;;7.89;64.16;101595.97;5015156;28;45399;-63
2022/12/07 10:01:47;;;;;;;;;28.50;23.25;;;;;7.87;63.88;101600.28;5010319;28;45577;-63
2022/12/07 10:04:21;;;;;;;;;32.00;25.50;;;;;7.82;65.28;101593.81;5009598;28;45902;-63
2022/12/07 10:06:47;;;;;;;;;32.00;28.50;;;;;7.80;65.30;101596.41;5016118;28;45697;-62
2022/12/07 10:09:18;;;;;;;;;30.50;28.50;;;;;7.70;65.12;101579.06;5012297;28;45442;-61
2022/12/07 10:12:06;;;;;;;;;28.00;26.75;;;;;7.75;64.73;101597.91;5017586;28;45520;-63
2022/12/07 10:14:35;;;;;;;;;31.50;29.75;;;;;7.78;65.84;101595.41;5011660;28;46412;-62
2022/12/07 10:17:01;;;;;;;;;35.00;25.50;;;;;7.86;65.38;101590.50;5015188;28;45311;-62
2022/12/07 10:19:31;;;;;;;;;41.75;28.75;;;;;7.82;65.79;101560.16;5019918;28;45725;-62
2022/12/07 10:22:00;;;;;;;;;32.50;29.25;;;;;8.09;65.08;101592.56;5017896;28;45325;-62
2022/12/07 10:24:25;;;;;;;;;34.50;31.50;;;;;8.05;64.66;101576.34;5011673;28;47723;-64
2022/12/07 10:26:52;;;;;;;;;37.50;25.75;;;;;8.14;64.08;101594.56;5015321;28;50301;-63
2022/12/07 10:29:34;;;;;;;;;31.75;27.75;;;;;8.17;64.07;101582.31;5015819;28;45469;-61
2022/12/07 10:32:03;;;;;;;;;34.75;30.50;;;;;8.20;63.44;101573.53;5013174;28;46807;-61
2022/12/07 10:34:35;;;;;;;;;33.75;24.75;;;;;8.26;64.19;101573.84;5012865;28;45720;-64
2022/12/07 10:37:12;;;;;;;;;35.75;30.00;;;;;8.24;63.40;101570.22;5029247;28;45508;-62
2022/12/07 10:39:50;;;;;;;;;33.75;28.50;;;;;7.68;63.49;101471.69;5009404;28;45564;-63
2022/12/07 10:42:21;;;;;;;;;39.25;31.50;;;;;8.15;63.23;101557.38;5011810;28;45532;-63
2022/12/07 10:44:48;;;;;;;;;36.75;30.25;;;;;8.15;63.53;101567.09;5012051;28;46310;-63
2022/12/07 10:47:25;;;;;;;;;37.00;34.75;;;;;8.22;64.49;101558.59;5008822;28;45545;-62
2022/12/07 10:50:21;;;;;;;;;42.00;37.50;;;;;8.32;63.85;101551.97;5011028;28;45655;-63
2022/12/07 10:53:02;;;;;;;;;36.00;29.50;;;;;8.37;63.84;101545.09;5011457;28;45471;-63
2022/12/07 10:55:47;;;;;;;;;43.50;34.25;;;;;8.41;63.27;101539.97;5024103;28;47791;-62
2022/12/07 10:58:24;;;;;;;;;18.00;11.50;;;;;8.34;62.88;101497.03;5007344;28;45482;-63
2022/12/07 11:00:52;;;;;;;;;31.00;31.00;;;;;8.52;62.56;101516.56;5007468;28;45798;-62
2022/12/07 11:03:23;;;;;;;;;26.00;21.50;;;;;8.59;63.19;101523.09;5022986;28;45051;-62
2022/12/07 11:06:03;;;;;;;;;33.75;29.50;;;;;8.63;62.69;101519.75;5027134;28;45839;-62
2022/12/07 11:08:30;;;;;;;;;35.00;33.50;;;;;8.63;63.31;101515.31;5023773;28;45101;-61
2022/12/07 11:11:13;;;;;;;;;32.75;26.50;;;;;8.53;62.10;101488.16;5026829;28;45167;-63
2022/12/07 11:14:24;;;;;;;;;51.25;35.75;;;;;8.71;62.77;101512.09;5024524;28;45996;-62
2022/12/07 11:16:55;;;;;;;;;35.25;31.25;;;;;8.73;62.54;101510.38;5022735;28;46669;-64
2022/12/07 11:19:39;;;;;;;;;31.50;26.75;;;;;8.73;62.27;101502.41;5028550;28;45146;-61
2022/12/07 11:22:47;;;;;;;;;40.75;34.00;;;;;8.79;63.09;101495.63;5022132;28;45796;-63
2022/12/07 11:25:16;;;;;;;;;34.50;28.75;;;;;8.91;61.97;101491.66;4992031;28;45197;-65
2022/12/07 11:27:41;;;;;;;;;36.75;32.25;;;;;8.97;61.26;101492.84;5007319;28;49285;-63
2022/12/07 11:30:16;;;;;;;;;58.00;43.75;;;;;8.98;61.89;101481.38;5009223;28;45543;-64